createdAt,value
2023-02-06T00:00:38.089Z,100735.70
2023-02-06T00:03:05.423Z,100736.47
2023-02-06T00:05:32.531Z,100732.03
2023-02-06T00:07:59.392Z,100737.04
2023-02-06T00:10:26.282Z,100739.02
2023-02-06T00:12:53.039Z,100739.60
2023-02-06T00:15:20.133Z,100737.04
2023-02-06T00:17:46.943Z,100732.11
2023-02-06T00:20:14.267Z,100730.69
2023-02-06T00:22:41.137Z,100730.48
2023-02-06T00:25:08.208Z,100728.27
2023-02-06T00:27:35.106Z,100736.65
2023-02-06T00:30:02.238Z,100738.04
2023-02-06T00:32:29.055Z,100742.16
2023-02-06T00:34:55.819Z,100737.08
2023-02-06T00:37:22.666Z,100736.97
2023-02-06T00:39:49.453Z,100738.36
2023-02-06T00:42:16.170Z,100739.50
2023-02-06T00:44:42.902Z,100734.68
2023-02-06T00:47:09.644Z,100735.08
2023-02-06T00:49:36.431Z,100734.50
2023-02-06T00:52:03.534Z,100729.17
2023-02-06T00:54:30.286Z,100722.81
2023-02-06T00:56:57.943Z,100723.94
2023-02-06T00:59:24.674Z,100723.79
2023-02-06T01:01:51.536Z,100728.48
2023-02-06T01:04:18.340Z,100717.23
2023-02-06T01:06:45.239Z,100705.23
2023-02-06T01:09:12.095Z,100711.31
2023-02-06T01:11:38.860Z,100718.61
2023-02-06T01:14:05.582Z,100712.30
2023-02-06T01:16:32.346Z,100707.85
2023-02-06T01:18:59.151Z,100710.05
2023-02-06T01:21:25.861Z,100702.35
2023-02-06T01:23:54.599Z,100692.07
2023-02-06T01:26:24.650Z,100692.46
2023-02-06T01:28:51.521Z,100699.18
2023-02-06T01:31:24.084Z,100693.54
2023-02-06T01:33:51.606Z,100686.52
2023-02-06T01:36:19.957Z,100687.05
2023-02-06T01:38:48.506Z,100691.84
2023-02-06T01:41:17.275Z,100689.48
2023-02-06T01:43:47.509Z,100686.12
2023-02-06T01:46:14.389Z,100691.75
2023-02-06T01:48:48.773Z,100689.95
2023-02-06T01:51:19.451Z,100691.77
2023-02-06T01:53:50.454Z,100686.43
2023-02-06T01:56:19.697Z,100680.69
2023-02-06T01:58:51.515Z,100687.94
2023-02-06T02:01:19.772Z,100688.06
2023-02-06T02:03:49.866Z,100682.04
2023-02-06T02:06:21.155Z,100678.67
2023-02-06T02:08:50.899Z,100674.67
2023-02-06T02:11:22.312Z,100665.64
2023-02-06T02:13:52.157Z,100658.65
2023-02-06T02:16:26.853Z,100660.77
2023-02-06T02:19:24.370Z,100659.23
2023-02-06T02:22:07.571Z,100660.48
2023-02-06T02:24:53.191Z,100652.89
2023-02-06T02:27:36.242Z,100647.99
2023-02-06T02:30:33.975Z,100645.00
2023-02-06T02:33:13.078Z,100643.75
2023-02-06T02:36:10.856Z,100651.34
2023-02-06T02:39:02.377Z,100645.67
2023-02-06T02:41:43.653Z,100642.34
2023-02-06T02:44:14.292Z,100643.61
2023-02-06T02:46:44.350Z,100645.81
2023-02-06T02:49:15.640Z,100641.52
2023-02-06T02:51:43.549Z,100637.35
2023-02-06T02:54:10.714Z,100630.04
2023-02-06T02:56:38.602Z,100632.80
2023-02-06T02:59:05.642Z,100637.02
2023-02-06T03:01:39.561Z,100640.44
2023-02-06T03:04:20.724Z,100642.70
2023-02-06T03:06:48.884Z,100636.98
2023-02-06T03:09:25.404Z,100630.96
2023-02-06T03:12:04.448Z,100628.20
2023-02-06T03:14:36.510Z,100634.70
2023-02-06T03:17:07.264Z,100643.21
2023-02-06T03:19:44.167Z,100646.42
2023-02-06T03:22:12.313Z,100644.39
2023-02-06T03:24:40.181Z,100642.67
2023-02-06T03:27:13.876Z,100643.41
2023-02-06T03:29:42.567Z,100652.40
2023-02-06T03:32:17.252Z,100657.54
2023-02-06T03:34:51.049Z,100659.46
2023-02-06T03:37:17.967Z,100656.38
2023-02-06T03:39:44.865Z,100663.56
2023-02-06T03:45:14.050Z,100653.02
2023-02-06T03:47:43.954Z,100647.27
2023-02-06T03:50:14.221Z,100643.73
2023-02-06T03:52:46.071Z,100635.63
2023-02-06T03:55:17.639Z,100634.92
2023-02-06T03:57:47.791Z,100637.02
2023-02-06T04:00:15.346Z,100638.04
2023-02-06T04:02:42.856Z,100639.77
2023-02-06T04:05:09.821Z,100645.45
2023-02-06T04:07:36.710Z,100645.59
2023-02-06T04:10:04.448Z,100646.77
2023-02-06T04:12:31.520Z,100642.25
2023-02-06T04:14:58.374Z,100647.61
2023-02-06T04:17:43.104Z,100648.01
2023-02-06T04:20:12.539Z,100649.04
2023-02-06T04:22:40.862Z,100651.13
2023-02-06T04:25:07.852Z,100659.26
2023-02-06T04:27:34.602Z,100658.92
2023-02-06T04:30:01.599Z,100662.91
2023-02-06T04:32:28.453Z,100667.95
2023-02-06T04:34:55.237Z,100667.48
2023-02-06T04:37:22.040Z,100666.48
2023-02-06T04:39:48.988Z,100657.38
2023-02-06T04:42:15.744Z,100653.19
2023-02-06T04:44:43.753Z,100656.65
2023-02-06T04:47:10.529Z,100659.24
2023-02-06T04:49:37.201Z,100659.36
2023-02-06T04:52:04.126Z,100661.13
2023-02-06T04:54:32.684Z,100667.71
2023-02-06T04:56:59.581Z,100663.79
2023-02-06T04:59:27.141Z,100670.02
2023-02-06T05:01:54.016Z,100673.46
2023-02-06T05:04:20.760Z,100673.44
2023-02-06T05:06:48.984Z,100674.24
2023-02-06T05:09:15.937Z,100678.42
2023-02-06T05:11:42.808Z,100679.29
2023-02-06T05:14:09.557Z,100683.60
2023-02-06T05:16:36.237Z,100682.72
2023-02-06T05:19:03.119Z,100681.52
2023-02-06T05:21:29.942Z,100682.73
2023-02-06T05:23:56.649Z,100677.34
2023-02-06T05:26:23.753Z,100670.27
2023-02-06T05:28:50.687Z,100669.34
2023-02-06T05:31:20.391Z,100668.83
2023-02-06T05:33:52.500Z,100676.00
2023-02-06T05:36:20.999Z,100674.46
2023-02-06T05:38:48.970Z,100673.67
2023-02-06T05:41:17.136Z,100674.35
2023-02-06T05:43:44.471Z,100677.73
2023-02-06T05:46:13.102Z,100667.16
2023-02-06T05:48:40.886Z,100666.27
2023-02-06T05:51:08.327Z,100670.31
2023-02-06T05:53:35.245Z,100670.91
2023-02-06T05:56:02.319Z,100670.23
2023-02-06T05:58:29.068Z,100671.27
2023-02-06T06:00:55.818Z,100670.65
2023-02-06T06:03:22.614Z,100670.65
2023-02-06T06:05:49.686Z,100671.73
2023-02-06T06:08:16.502Z,100671.27
2023-02-06T06:10:43.275Z,100675.98
2023-02-06T06:13:10.081Z,100676.69
2023-02-06T06:15:37.643Z,100677.55
2023-02-06T06:18:04.987Z,100680.83
2023-02-06T06:20:31.709Z,100681.51
2023-02-06T06:22:58.470Z,100679.02
2023-02-06T06:25:25.366Z,100679.10
2023-02-06T06:27:52.203Z,100680.16
2023-02-06T06:30:19.072Z,100681.26
2023-02-06T06:32:45.834Z,100686.48
2023-02-06T06:35:12.726Z,100682.33
2023-02-06T06:37:39.481Z,100684.77
2023-02-06T06:40:06.773Z,100682.20
2023-02-06T06:42:33.489Z,100682.77
2023-02-06T06:45:00.211Z,100682.20
2023-02-06T06:47:27.136Z,100678.88
2023-02-06T06:49:53.868Z,100676.02
2023-02-06T06:52:25.249Z,100681.16
2023-02-06T06:54:53.532Z,100683.62
2023-02-06T06:57:21.789Z,100682.55
2023-02-06T06:59:49.042Z,100683.82
2023-02-06T07:02:16.352Z,100683.52
2023-02-06T07:04:43.356Z,100687.79
2023-02-06T07:07:10.332Z,100681.70
2023-02-06T07:09:37.092Z,100686.17
2023-02-06T07:12:04.267Z,100687.65
2023-02-06T07:14:31.034Z,100686.42
2023-02-06T07:16:59.254Z,100689.89
2023-02-06T07:19:26.117Z,100686.41
2023-02-06T07:21:54.089Z,100686.63
2023-02-06T07:24:21.012Z,100688.61
2023-02-06T07:26:47.796Z,100687.23
2023-02-06T07:29:14.556Z,100684.07
2023-02-06T07:31:41.635Z,100683.48
2023-02-06T07:34:08.768Z,100681.38
2023-02-06T07:36:35.756Z,100681.10
2023-02-06T07:39:04.418Z,100677.45
2023-02-06T07:41:31.188Z,100672.52
2023-02-06T07:43:58.152Z,100669.31
2023-02-06T07:46:25.048Z,100666.83
2023-02-06T07:48:51.862Z,100664.23
2023-02-06T07:51:18.959Z,100667.35
2023-02-06T07:53:45.742Z,100671.15
2023-02-06T07:56:15.403Z,100661.71
2023-02-06T07:58:42.376Z,100655.38
2023-02-06T08:01:10.060Z,100648.94
2023-02-06T08:03:37.260Z,100649.14
2023-02-06T08:06:09.432Z,100654.14
2023-02-06T08:08:36.207Z,100652.74
2023-02-06T08:11:06.489Z,100654.34
2023-02-06T08:13:33.920Z,100656.42
2023-02-06T08:16:14.053Z,100654.73
2023-02-06T08:18:41.214Z,100660.86
2023-02-06T08:21:11.794Z,100657.59
2023-02-06T08:23:39.035Z,100655.17
2023-02-06T08:26:09.588Z,100653.02
2023-02-06T08:28:38.213Z,100648.33
2023-02-06T08:31:15.105Z,100647.98
2023-02-06T08:33:42.115Z,100652.56
2023-02-06T08:36:09.770Z,100652.62
2023-02-06T08:38:36.898Z,100646.21
2023-02-06T08:41:05.055Z,100644.08
2023-02-06T08:43:33.198Z,100642.59
2023-02-06T08:46:00.154Z,100648.02
2023-02-06T08:48:27.959Z,100651.16
2023-02-06T08:51:04.474Z,100650.30
2023-02-06T08:53:31.316Z,100656.04
2023-02-06T08:56:02.560Z,100651.05
2023-02-06T08:58:44.896Z,100651.30
2023-02-06T09:01:14.531Z,100651.92
2023-02-06T09:03:41.901Z,100651.95
2023-02-06T09:06:10.590Z,100654.77
2023-02-06T09:08:38.740Z,100652.60
2023-02-06T09:11:06.778Z,100653.52
2023-02-06T09:13:33.996Z,100656.56
2023-02-06T09:16:00.850Z,100655.82
2023-02-06T09:18:27.587Z,100657.27
2023-02-06T09:21:11.937Z,100659.98
2023-02-06T09:23:39.551Z,100664.76
2023-02-06T09:26:06.865Z,100666.23
2023-02-06T09:28:33.856Z,100661.79
2023-02-06T09:31:00.816Z,100659.56
2023-02-06T09:33:27.680Z,100658.36
2023-02-06T09:36:05.530Z,100656.33
2023-02-06T09:38:32.659Z,100661.23
2023-02-06T09:41:02.228Z,100660.45
2023-02-06T09:43:31.993Z,100662.46
2023-02-06T09:46:03.828Z,100663.96
2023-02-06T09:48:34.887Z,100667.86
2023-02-06T09:51:33.901Z,100670.37
2023-02-06T09:54:18.558Z,100671.61
2023-02-06T09:56:55.326Z,100670.16
2023-02-06T09:59:29.633Z,100667.48
2023-02-06T10:02:19.390Z,100669.30
2023-02-06T10:05:08.750Z,100667.61
2023-02-06T10:07:57.311Z,100666.89
2023-02-06T10:10:41.445Z,100665.70
2023-02-06T10:13:39.275Z,100659.60
2023-02-06T10:16:19.965Z,100659.31
2023-02-06T10:18:55.235Z,100654.52
2023-02-06T10:21:36.072Z,100651.97
2023-02-06T10:24:18.113Z,100658.55
2023-02-06T10:26:48.074Z,100662.64
2023-02-06T10:29:23.918Z,100655.57
2023-02-06T10:32:11.026Z,100659.06
2023-02-06T10:35:00.658Z,100650.88
2023-02-06T10:37:58.204Z,100654.25
2023-02-06T10:40:46.658Z,100649.46
2023-02-06T10:43:40.914Z,100645.39
2023-02-06T10:46:20.545Z,100646.02
2023-02-06T10:48:58.196Z,100643.52
2023-02-06T10:51:32.260Z,100638.80
2023-02-06T10:54:01.921Z,100640.00
2023-02-06T10:56:36.689Z,100634.61
2023-02-06T10:59:11.504Z,100632.89
2023-02-06T11:01:41.019Z,100633.39
2023-02-06T11:04:18.835Z,100630.09
2023-02-06T11:06:47.039Z,100630.62
2023-02-06T11:09:14.716Z,100622.85
2023-02-06T11:11:48.576Z,100618.03
2023-02-06T11:14:34.165Z,100616.35
2023-02-06T11:17:01.452Z,100618.19
2023-02-06T11:19:32.095Z,100611.53
2023-02-06T11:22:16.308Z,100613.77
2023-02-06T11:25:06.139Z,100618.89
2023-02-06T11:27:35.023Z,100622.48
2023-02-06T11:30:08.436Z,100622.02
2023-02-06T11:32:41.211Z,100622.10
2023-02-06T11:35:32.333Z,100627.14
2023-02-06T11:38:14.665Z,100631.32
2023-02-06T11:40:42.012Z,100629.78
2023-02-06T11:43:09.770Z,100627.66
2023-02-06T11:45:37.165Z,100626.45
2023-02-06T11:48:07.295Z,100622.06
2023-02-06T11:50:36.815Z,100621.11
2023-02-06T11:53:17.070Z,100628.16
2023-02-06T11:55:45.637Z,100624.67
2023-02-06T11:58:12.364Z,100618.88
2023-02-06T12:00:41.549Z,100615.54
2023-02-06T12:03:30.683Z,100615.02
2023-02-06T12:06:04.186Z,100615.06
2023-02-06T12:08:51.579Z,100610.95
2023-02-06T12:11:28.220Z,100607.98
2023-02-06T12:14:00.990Z,100604.29
2023-02-06T12:16:29.028Z,100602.52
2023-02-06T12:18:57.894Z,100604.42
2023-02-06T12:21:38.232Z,100602.48
2023-02-06T12:24:19.672Z,100595.05
2023-02-06T12:26:48.323Z,100594.41
2023-02-06T12:29:23.038Z,100593.05
2023-02-06T12:32:08.240Z,100592.01
2023-02-06T12:34:53.250Z,100593.08
2023-02-06T12:37:51.287Z,100588.39
2023-02-06T12:40:27.001Z,100588.64
2023-02-06T12:43:01.733Z,100593.58
2023-02-06T12:45:40.014Z,100596.16
2023-02-06T12:48:14.621Z,100598.64
2023-02-06T12:50:49.226Z,100602.74
2023-02-06T12:53:28.792Z,100602.48
2023-02-06T12:56:04.870Z,100601.92
2023-02-06T12:58:48.984Z,100601.57
2023-02-06T13:01:34.706Z,100604.17
2023-02-06T13:04:09.981Z,100606.59
2023-02-06T13:06:44.181Z,100609.29
2023-02-06T13:09:21.330Z,100608.56
2023-02-06T13:11:48.399Z,100608.40
2023-02-06T13:14:18.454Z,100611.36
2023-02-06T13:16:51.398Z,100611.92
2023-02-06T13:19:23.386Z,100612.80
2023-02-06T13:21:53.298Z,100611.23
2023-02-06T13:24:21.041Z,100608.48
2023-02-06T13:26:51.563Z,100608.00
2023-02-06T13:29:22.895Z,100603.48
2023-02-06T13:31:49.778Z,100607.80
2023-02-06T13:34:18.558Z,100607.75
2023-02-06T13:36:50.158Z,100607.21
2023-02-06T13:39:28.587Z,100620.71
2023-02-06T13:41:56.549Z,100626.21
2023-02-06T13:44:30.738Z,100629.57
2023-02-06T13:47:16.330Z,100626.74
2023-02-06T13:50:14.085Z,100624.59
2023-02-06T13:53:07.237Z,100628.27
2023-02-06T13:55:55.202Z,100627.91
2023-02-06T13:58:48.276Z,100629.98
2023-02-06T14:01:20.761Z,100629.15
2023-02-06T14:03:51.193Z,100631.30
2023-02-06T14:06:33.627Z,100631.15
2023-02-06T14:09:02.512Z,100637.33
2023-02-06T14:11:59.526Z,100638.80
2023-02-06T14:14:57.417Z,100644.05
2023-02-06T14:17:37.887Z,100644.28
2023-02-06T14:20:20.055Z,100646.98
2023-02-06T14:23:05.853Z,100646.99
2023-02-06T14:25:52.748Z,100647.23
2023-02-06T14:28:23.926Z,100645.44
2023-02-06T14:30:58.442Z,100653.64
2023-02-06T14:33:40.934Z,100649.75
2023-02-06T14:36:19.056Z,100655.55
2023-02-06T14:39:16.535Z,100661.41
2023-02-06T14:41:43.354Z,100661.86
2023-02-06T14:44:14.032Z,100664.00
2023-02-06T14:46:42.714Z,100662.42
2023-02-06T14:49:16.219Z,100663.84
2023-02-06T14:51:43.102Z,100665.17
2023-02-06T14:54:28.964Z,100661.25
2023-02-06T14:56:58.322Z,100661.10
2023-02-06T14:59:25.603Z,100661.08
2023-02-06T15:01:54.697Z,100662.91
2023-02-06T15:04:27.178Z,100666.26
2023-02-06T15:06:57.488Z,100670.53
2023-02-06T15:09:30.764Z,100675.65
2023-02-06T15:12:03.397Z,100672.64
2023-02-06T15:14:33.612Z,100673.20
2023-02-06T15:17:02.626Z,100673.29
2023-02-06T15:19:35.740Z,100676.41
2023-02-06T15:22:18.269Z,100680.00
2023-02-06T15:25:02.171Z,100677.85
2023-02-06T15:27:37.726Z,100677.72
2023-02-06T15:30:22.092Z,100684.90
2023-02-06T15:32:51.328Z,100690.45
2023-02-06T15:35:20.154Z,100697.90
2023-02-06T15:37:47.297Z,100704.06
2023-02-06T15:40:25.866Z,100701.35
2023-02-06T15:42:53.591Z,100707.32
2023-02-06T15:45:24.934Z,100704.42
2023-02-06T15:47:53.454Z,100703.80
2023-02-06T15:50:24.876Z,100706.33
2023-02-06T15:52:52.372Z,100708.15
2023-02-06T15:55:29.991Z,100711.86
2023-02-06T15:57:58.330Z,100712.48
2023-02-06T16:00:36.166Z,100713.22
2023-02-06T16:03:07.927Z,100714.05
2023-02-06T16:05:39.986Z,100716.69
2023-02-06T16:08:16.109Z,100720.08
2023-02-06T16:10:45.521Z,100722.91
2023-02-06T16:13:19.568Z,100723.70
2023-02-06T16:16:01.922Z,100721.23
2023-02-06T16:18:33.112Z,100719.94
2023-02-06T16:21:15.682Z,100713.02
2023-02-06T16:24:03.387Z,100716.83
2023-02-06T16:26:38.965Z,100721.77
2023-02-06T16:29:09.189Z,100723.28
2023-02-06T16:31:39.057Z,100720.65
2023-02-06T16:34:30.619Z,100726.23
2023-02-06T16:36:57.466Z,100732.47
2023-02-06T16:39:24.193Z,100732.27
2023-02-06T16:41:52.402Z,100729.45
2023-02-06T16:44:20.275Z,100734.66
2023-02-06T16:46:47.075Z,100735.64
2023-02-06T16:49:20.039Z,100738.70
2023-02-06T16:51:49.436Z,100736.29
2023-02-06T16:54:20.867Z,100747.21
2023-02-06T16:56:47.867Z,100755.89
2023-02-06T16:59:14.660Z,100761.70
2023-02-06T17:01:41.586Z,100761.09
2023-02-06T17:04:08.527Z,100754.71
2023-02-06T17:06:36.193Z,100751.91
2023-02-06T17:09:09.278Z,100753.81
2023-02-06T17:11:37.244Z,100756.34
2023-02-06T17:14:04.155Z,100762.01
2023-02-06T17:16:32.060Z,100765.27
2023-02-06T17:18:58.821Z,100768.56
2023-02-06T17:21:28.444Z,100766.10
2023-02-06T17:23:55.341Z,100766.92
2023-02-06T17:26:23.591Z,100768.45
2023-02-06T17:28:51.785Z,100765.84
2023-02-06T17:31:19.197Z,100767.36
2023-02-06T17:33:46.391Z,100765.34
2023-02-06T17:36:18.828Z,100764.15
2023-02-06T17:38:45.656Z,100768.11
2023-02-06T17:41:13.720Z,100768.52
2023-02-06T17:43:40.847Z,100767.59
2023-02-06T17:46:07.746Z,100773.03
2023-02-06T17:48:36.805Z,100781.02
2023-02-06T17:51:05.711Z,100776.70
2023-02-06T17:53:33.514Z,100776.58
2023-02-06T17:56:12.945Z,100777.42
2023-02-06T17:58:42.687Z,100776.20
2023-02-06T18:01:12.906Z,100776.57
2023-02-06T18:03:40.814Z,100780.60
2023-02-06T18:06:08.189Z,100778.72
2023-02-06T18:08:35.030Z,100777.02
2023-02-06T18:11:08.003Z,100779.64
2023-02-06T18:13:35.081Z,100781.55
2023-02-06T18:16:01.825Z,100777.23
2023-02-06T18:18:28.607Z,100782.61
2023-02-06T18:20:55.480Z,100784.93
2023-02-06T18:23:22.592Z,100794.11
2023-02-06T18:25:49.577Z,100799.65
2023-02-06T18:28:18.082Z,100799.16
2023-02-06T18:30:45.865Z,100806.52
2023-02-06T18:33:12.932Z,100805.55
2023-02-06T18:35:41.589Z,100807.86
2023-02-06T18:38:10.148Z,100804.79
2023-02-06T18:40:39.696Z,100800.70
2023-02-06T18:43:08.497Z,100805.27
2023-02-06T18:45:38.903Z,100804.48
2023-02-06T18:48:09.268Z,100799.54
2023-02-06T18:50:40.366Z,100802.36
2023-02-06T18:53:08.470Z,100800.98
2023-02-06T18:55:37.581Z,100797.00
2023-02-06T18:58:06.248Z,100800.95
2023-02-06T19:00:36.326Z,100805.45
2023-02-06T19:03:06.137Z,100805.29
2023-02-06T19:05:35.964Z,100807.04
2023-02-06T19:08:02.836Z,100810.21
2023-02-06T19:10:29.675Z,100799.41
2023-02-06T19:12:56.368Z,100794.34
2023-02-06T19:15:23.293Z,100792.52
2023-02-06T19:17:50.503Z,100793.75
2023-02-06T19:20:17.616Z,100798.42
2023-02-06T19:22:44.550Z,100797.02
2023-02-06T19:25:14.448Z,100798.55
2023-02-06T19:27:41.814Z,100800.79
2023-02-06T19:30:09.290Z,100801.15
2023-02-06T19:32:36.692Z,100802.05
2023-02-06T19:35:04.229Z,100809.28
2023-02-06T19:37:31.906Z,100810.83
2023-02-06T19:39:59.228Z,100803.73
2023-02-06T19:42:26.268Z,100809.40
2023-02-06T19:44:54.835Z,100814.54
2023-02-06T19:47:22.733Z,100817.60
2023-02-06T19:49:52.386Z,100816.01
2023-02-06T19:52:20.240Z,100817.06
2023-02-06T19:54:48.025Z,100815.20
2023-02-06T19:57:16.027Z,100806.99
2023-02-06T19:59:58.538Z,100806.58
2023-02-06T20:02:25.277Z,100810.95
2023-02-06T20:04:52.286Z,100812.04
2023-02-06T20:07:19.133Z,100813.97
2023-02-06T20:09:45.929Z,100817.61
2023-02-06T20:12:12.919Z,100820.89
2023-02-06T20:14:39.731Z,100820.57
2023-02-06T20:17:06.583Z,100824.23
2023-02-06T20:19:33.713Z,100830.31
2023-02-06T20:22:01.155Z,100835.34
2023-02-06T20:24:30.456Z,100840.37
2023-02-06T20:27:00.733Z,100848.86
2023-02-06T20:29:31.343Z,100852.30
2023-02-06T20:31:58.928Z,100855.58
2023-02-06T20:34:26.956Z,100860.09
2023-02-06T20:36:55.521Z,100861.83
2023-02-06T20:39:23.773Z,100864.59
2023-02-06T20:41:51.018Z,100862.70
2023-02-06T20:44:19.393Z,100860.98
2023-02-06T20:46:46.698Z,100859.95
2023-02-06T20:49:16.983Z,100861.87
2023-02-06T20:51:43.908Z,100866.01
2023-02-06T20:54:11.821Z,100872.77
2023-02-06T20:56:39.978Z,100878.83
2023-02-06T20:59:08.442Z,100880.73
2023-02-06T21:01:35.350Z,100881.92
2023-02-06T21:04:05.665Z,100885.88
2023-02-06T21:06:34.612Z,100891.23
2023-02-06T21:09:03.103Z,100896.77
2023-02-06T21:11:34.833Z,100892.41
2023-02-06T21:14:04.465Z,100891.55
2023-02-06T21:16:33.150Z,100895.49
2023-02-06T21:19:01.384Z,100899.11
2023-02-06T21:21:29.121Z,100894.77
2023-02-06T21:23:56.291Z,100892.91
2023-02-06T21:26:24.805Z,100898.61
2023-02-06T21:28:52.219Z,100903.66
2023-02-06T21:31:22.980Z,100908.35
2023-02-06T21:33:51.424Z,100913.20
2023-02-06T21:36:21.205Z,100919.59
2023-02-06T21:38:48.196Z,100917.16
2023-02-06T21:41:18.550Z,100915.45
2023-02-06T21:43:46.086Z,100923.40
2023-02-06T21:46:13.484Z,100924.10
2023-02-06T21:48:41.212Z,100929.96
2023-02-06T21:51:12.565Z,100936.36
2023-02-06T21:53:40.852Z,100942.23
2023-02-06T21:56:11.614Z,100942.41
2023-02-06T21:58:38.580Z,100944.66
2023-02-06T22:01:08.834Z,100951.38
2023-02-06T22:03:35.805Z,100956.39
2023-02-06T22:06:08.839Z,100956.21
2023-02-06T22:08:36.878Z,100958.64
2023-02-06T22:11:13.272Z,100960.19
2023-02-06T22:13:41.028Z,100961.92
2023-02-06T22:16:09.571Z,100965.55
2023-02-06T22:18:36.507Z,100972.09
2023-02-06T22:21:13.143Z,100979.50
2023-02-06T22:23:40.855Z,100980.20
2023-02-06T22:26:10.662Z,100979.85
2023-02-06T22:28:37.434Z,100984.15
2023-02-06T22:31:10.092Z,100985.02
2023-02-06T22:33:37.390Z,100981.56
2023-02-06T22:36:07.665Z,100985.21
2023-02-06T22:38:35.463Z,100987.61
2023-02-06T22:41:05.453Z,100982.60
2023-02-06T22:43:34.155Z,100976.40
2023-02-06T22:46:01.119Z,100963.64
2023-02-06T22:48:28.339Z,100956.91
2023-02-06T22:50:55.140Z,100957.44
2023-02-06T22:53:30.227Z,100955.70
2023-02-06T22:56:17.361Z,100963.30
2023-02-06T22:58:44.678Z,100956.05
2023-02-06T23:01:11.739Z,100956.73
2023-02-06T23:03:38.539Z,100952.78
2023-02-06T23:06:07.952Z,100948.99
2023-02-06T23:08:35.612Z,100949.16
2023-02-06T23:11:03.805Z,100949.84
2023-02-06T23:13:30.612Z,100948.28
2023-02-06T23:15:58.590Z,100939.85
2023-02-06T23:18:26.647Z,100942.11
2023-02-06T23:20:58.428Z,100931.92
2023-02-06T23:23:25.692Z,100928.64
2023-02-06T23:25:52.990Z,100928.30
2023-02-06T23:28:20.585Z,100930.58
2023-02-06T23:30:48.079Z,100940.90
2023-02-06T23:33:16.587Z,100936.09
2023-02-06T23:35:43.893Z,100938.50
2023-02-06T23:38:11.132Z,100935.02
2023-02-06T23:40:38.445Z,100931.58
2023-02-06T23:43:06.254Z,100920.54
2023-02-06T23:45:33.886Z,100925.73
2023-02-06T23:48:00.715Z,100919.69
2023-02-06T23:50:27.753Z,100915.02
2023-02-06T23:52:54.484Z,100930.88
2023-02-06T23:55:22.137Z,100934.66
2023-02-06T23:57:48.858Z,100938.48
